createdAt,value
2018-11-12T00:00:40.001Z,11.59
2018-11-12T00:03:08.918Z,11.58
2018-11-12T00:05:37.847Z,11.55
2018-11-12T00:08:06.829Z,11.54
2018-11-12T00:10:35.824Z,11.62
2018-11-12T00:13:04.901Z,11.50
2018-11-12T00:15:33.901Z,11.52
2018-11-12T00:18:02.871Z,11.52
2018-11-12T00:20:31.799Z,11.48
2018-11-12T00:23:00.792Z,11.45
2018-11-12T00:25:29.787Z,11.44
2018-11-12T00:27:58.667Z,11.41
2018-11-12T00:30:27.648Z,11.31
2018-11-12T00:32:56.715Z,11.30
2018-11-12T00:35:26.100Z,11.40
2018-11-12T00:37:55.100Z,11.34
2018-11-12T00:40:24.090Z,11.34
2018-11-12T00:42:53.040Z,11.36
2018-11-12T00:45:21.979Z,11.19
2018-11-12T00:47:51.081Z,11.22
2018-11-12T00:50:20.232Z,11.19
2018-11-12T00:52:49.156Z,11.19
2018-11-12T00:55:18.243Z,11.22
2018-11-12T00:57:47.253Z,11.19
2018-11-12T01:00:18.551Z,11.12
2018-11-12T01:02:48.744Z,11.05
2018-11-12T01:05:18.524Z,11.15
2018-11-12T01:07:48.170Z,11.11
2018-11-12T01:10:18.165Z,11.15
2018-11-12T01:12:47.408Z,11.10
2018-11-12T01:15:20.531Z,11.03
2018-11-12T01:17:49.649Z,10.97
2018-11-12T01:20:18.968Z,11.02
2018-11-12T01:22:48.003Z,10.97
2018-11-12T01:25:17.159Z,10.98
2018-11-12T01:27:46.365Z,10.97
2018-11-12T01:30:17.503Z,10.94
2018-11-12T01:32:46.710Z,10.96
2018-11-12T01:35:16.759Z,10.95
2018-11-12T01:37:45.958Z,11.01
2018-11-12T01:40:16.093Z,11.09
2018-11-12T01:42:45.455Z,10.93
2018-11-12T01:45:18.700Z,10.83
2018-11-12T01:47:48.988Z,10.65
2018-11-12T01:50:18.550Z,10.73
2018-11-12T01:52:48.319Z,10.76
2018-11-12T01:55:18.402Z,10.70
2018-11-12T01:57:47.638Z,10.63
2018-11-12T02:00:19.543Z,10.70
2018-11-12T02:02:49.725Z,10.61
2018-11-12T02:05:19.249Z,10.60
2018-11-12T02:07:48.258Z,10.65
2018-11-12T02:10:18.507Z,10.79
2018-11-12T02:12:47.533Z,10.83
2018-11-12T02:15:17.979Z,10.85
2018-11-12T02:17:47.744Z,10.75
2018-11-12T02:20:18.020Z,10.80
2018-11-12T02:22:47.913Z,10.73
2018-11-12T02:25:17.268Z,10.63
2018-11-12T02:27:46.288Z,10.65
2018-11-12T02:30:24.005Z,10.69
2018-11-12T02:32:53.123Z,10.69
2018-11-12T02:35:22.073Z,10.71
2018-11-12T02:37:51.033Z,10.79
2018-11-12T02:40:19.939Z,10.66
2018-11-12T02:42:48.874Z,10.68
2018-11-12T02:45:17.923Z,10.72
2018-11-12T02:47:46.798Z,10.76
2018-11-12T02:50:17.129Z,10.73
2018-11-12T02:52:46.122Z,10.65
2018-11-12T02:55:16.086Z,10.55
2018-11-12T02:57:45.946Z,10.53
2018-11-12T03:00:23.048Z,10.48
2018-11-12T03:02:52.167Z,10.26
2018-11-12T03:05:21.139Z,10.37
2018-11-12T03:07:50.177Z,10.48
2018-11-12T03:10:24.673Z,10.46
2018-11-12T03:12:53.738Z,10.45
2018-11-12T03:15:22.899Z,10.31
2018-11-12T03:17:52.567Z,10.27
2018-11-12T03:20:22.706Z,10.38
2018-11-12T03:22:51.678Z,10.26
2018-11-12T03:25:21.698Z,10.20
2018-11-12T03:27:50.972Z,10.21
2018-11-12T03:30:21.122Z,10.12
2018-11-12T03:32:50.828Z,10.10
2018-11-12T03:35:19.922Z,10.11
2018-11-12T03:37:50.072Z,10.11
2018-11-12T03:40:21.059Z,10.18
2018-11-12T03:42:50.571Z,10.28
2018-11-12T03:45:21.178Z,10.37
2018-11-12T03:47:51.171Z,10.34
2018-11-12T03:50:21.361Z,10.33
2018-11-12T03:52:51.710Z,10.36
2018-11-12T03:55:22.218Z,10.31
2018-11-12T03:57:51.172Z,10.31
2018-11-12T04:00:24.893Z,10.24
2018-11-12T04:02:53.804Z,10.18
2018-11-12T04:05:22.728Z,10.14
2018-11-12T04:07:51.780Z,10.09
2018-11-12T04:10:21.499Z,10.14
2018-11-12T04:12:50.947Z,10.03
2018-11-12T04:15:21.773Z,9.96
2018-11-12T04:17:50.709Z,9.95
2018-11-12T04:20:20.908Z,9.90
2018-11-12T04:22:55.020Z,9.90
2018-11-12T04:25:23.942Z,9.90
2018-11-12T04:27:52.839Z,9.91
2018-11-12T04:30:21.831Z,9.98
2018-11-12T04:32:50.770Z,9.82
2018-11-12T04:35:19.799Z,9.79
2018-11-12T04:37:48.792Z,9.82
2018-11-12T04:40:18.939Z,9.82
2018-11-12T04:42:49.890Z,9.84
2018-11-12T04:45:19.989Z,9.93
2018-11-12T04:47:50.819Z,9.91
2018-11-12T04:50:21.090Z,9.87
2018-11-12T04:52:50.608Z,9.88
2018-11-12T04:55:20.625Z,9.94
2018-11-12T04:57:49.686Z,10.02
2018-11-12T05:00:20.764Z,10.01
2018-11-12T05:02:49.784Z,10.10
2018-11-12T05:05:20.084Z,10.17
2018-11-12T05:07:49.110Z,10.19
2018-11-12T05:10:19.481Z,10.18
2018-11-12T05:12:48.905Z,10.27
2018-11-12T05:15:19.134Z,10.30
2018-11-12T05:17:48.243Z,10.39
2018-11-12T05:20:21.700Z,10.36
2018-11-12T05:22:50.790Z,10.47
2018-11-12T05:25:19.699Z,10.45
2018-11-12T05:27:48.622Z,10.64
2018-11-12T05:30:25.970Z,10.91
2018-11-12T05:32:54.922Z,10.88
2018-11-12T05:35:25.204Z,10.94
2018-11-12T05:37:54.377Z,11.04
2018-11-12T05:40:24.712Z,10.95
2018-11-12T05:42:54.922Z,11.03
2018-11-12T05:45:26.167Z,11.25
2018-11-12T05:47:55.226Z,11.29
2018-11-12T05:50:27.197Z,11.44
2018-11-12T05:52:57.876Z,11.36
2018-11-12T05:55:27.877Z,11.22
2018-11-12T05:57:56.816Z,11.28
2018-11-12T06:00:30.310Z,11.41
2018-11-12T06:02:59.348Z,11.40
2018-11-12T06:05:28.446Z,11.22
2018-11-12T06:07:57.434Z,11.14
2018-11-12T06:10:27.810Z,10.94
2018-11-12T06:12:56.862Z,11.01
2018-11-12T06:15:25.822Z,10.71
2018-11-12T06:17:54.795Z,10.62
2018-11-12T06:20:25.247Z,10.62
2018-11-12T06:22:54.371Z,10.68
2018-11-12T06:25:24.735Z,10.81
2018-11-12T06:27:53.886Z,10.95
2018-11-12T06:30:24.129Z,10.99
2018-11-12T06:32:53.372Z,11.15
2018-11-12T06:35:22.554Z,11.17
2018-11-12T06:37:52.349Z,11.25
2018-11-12T06:40:22.647Z,11.18
2018-11-12T06:42:51.837Z,11.22
2018-11-12T06:45:22.123Z,11.43
2018-11-12T06:47:52.075Z,11.62
2018-11-12T06:50:22.411Z,11.78
2018-11-12T06:52:51.454Z,11.75
2018-11-12T06:55:20.901Z,12.04
2018-11-12T06:57:50.201Z,12.26
2018-11-12T07:00:25.318Z,12.31
2018-11-12T07:02:54.335Z,12.51
2018-11-12T07:05:23.316Z,12.35
2018-11-12T07:07:52.515Z,11.77
2018-11-12T07:10:22.714Z,11.68
2018-11-12T07:12:52.619Z,11.85
2018-11-12T07:15:23.090Z,11.95
2018-11-12T07:17:52.000Z,12.27
2018-11-12T07:20:22.570Z,12.40
2018-11-12T07:22:52.145Z,12.50
2018-11-12T07:25:23.908Z,12.61
2018-11-12T07:27:52.746Z,12.81
2018-11-12T07:30:24.331Z,12.91
2018-11-12T07:32:54.294Z,12.99
2018-11-12T07:35:23.404Z,12.85
2018-11-12T07:37:54.771Z,12.94
2018-11-12T07:40:24.047Z,13.12
2018-11-12T07:42:53.151Z,13.11
2018-11-12T07:45:23.557Z,13.03
2018-11-12T07:47:53.335Z,13.14
2018-11-12T07:50:23.386Z,12.96
2018-11-12T07:52:52.436Z,13.06
2018-11-12T07:55:22.686Z,13.36
2018-11-12T07:57:52.952Z,13.46
2018-11-12T08:00:26.402Z,13.13
2018-11-12T08:03:11.174Z,13.51
2018-11-12T08:05:40.772Z,13.92
2018-11-12T08:08:10.211Z,14.09
2018-11-12T08:10:39.311Z,13.87
2018-11-12T08:13:08.171Z,13.84
2018-11-12T08:15:37.189Z,14.27
2018-11-12T08:18:06.302Z,14.16
2018-11-12T08:20:35.263Z,14.32
2018-11-12T08:23:04.223Z,14.69
2018-11-12T08:25:33.309Z,14.28
2018-11-12T08:28:02.380Z,14.57
2018-11-12T08:30:31.376Z,14.91
2018-11-12T08:33:01.362Z,14.79
2018-11-12T08:35:30.337Z,15.02
2018-11-12T08:37:59.530Z,15.24
2018-11-12T08:40:29.439Z,14.98
2018-11-12T08:42:58.372Z,15.17
2018-11-12T08:45:27.295Z,15.09
2018-11-12T08:47:57.025Z,15.35
2018-11-12T08:50:27.000Z,15.75
2018-11-12T08:52:56.591Z,16.00
2018-11-12T08:55:27.020Z,15.61
2018-11-12T08:57:57.722Z,15.80
2018-11-12T09:00:27.224Z,15.58
2018-11-12T09:02:56.468Z,15.56
2018-11-12T09:05:26.730Z,15.96
2018-11-12T09:07:57.179Z,16.20
2018-11-12T09:10:30.531Z,16.45
2018-11-12T09:12:59.474Z,16.82
2018-11-12T09:15:28.512Z,16.96
2018-11-12T09:17:57.525Z,17.12
2018-11-12T09:20:27.851Z,16.35
2018-11-12T09:22:56.962Z,16.35
2018-11-12T09:25:26.968Z,16.53
2018-11-12T09:27:55.915Z,16.80
2018-11-12T09:30:26.032Z,16.93
2018-11-12T09:32:55.026Z,17.54
2018-11-12T09:35:27.341Z,17.84
2018-11-12T09:37:57.319Z,18.09
2018-11-12T09:40:28.741Z,18.22
2018-11-12T09:42:57.766Z,18.27
2018-11-12T09:45:26.832Z,17.93
2018-11-12T09:47:57.567Z,17.81
2018-11-12T09:50:27.468Z,17.83
2018-11-12T09:52:57.601Z,17.76
2018-11-12T09:55:27.658Z,17.95
2018-11-12T09:57:58.079Z,18.23
2018-11-12T10:00:27.322Z,18.49
2018-11-12T10:02:57.338Z,18.41
2018-11-12T10:05:26.478Z,18.35
2018-11-12T10:08:00.786Z,18.50
2018-11-12T10:10:49.669Z,18.29
2018-11-12T10:13:21.414Z,17.99
2018-11-12T10:15:51.401Z,17.89
2018-11-12T10:18:17.267Z,17.78
2018-11-12T10:20:46.405Z,17.86
2018-11-12T10:23:15.355Z,17.91
2018-11-12T10:25:44.327Z,17.85
2018-11-12T10:28:13.263Z,17.60
2018-11-12T10:30:42.270Z,17.51
2018-11-12T10:33:11.158Z,17.36
2018-11-12T10:35:40.047Z,17.22
2018-11-12T10:38:09.524Z,17.09
2018-11-12T10:40:38.478Z,17.16
2018-11-12T10:43:07.403Z,17.20
2018-11-12T10:45:36.335Z,17.22
2018-11-12T10:48:05.805Z,17.35
2018-11-12T10:50:34.776Z,17.39
2018-11-12T10:53:03.703Z,17.41
2018-11-12T10:55:33.046Z,17.36
2018-11-12T10:58:01.771Z,17.39
2018-11-12T11:00:38.175Z,17.42
2018-11-12T11:03:14.336Z,17.43
2018-11-12T11:05:44.516Z,17.85
2018-11-12T11:08:13.517Z,18.01
2018-11-12T11:10:42.457Z,17.99
2018-11-12T11:13:11.524Z,18.44
2018-11-12T11:15:40.885Z,18.89
2018-11-12T11:18:09.863Z,19.11
2018-11-12T11:20:39.018Z,19.31
2018-11-12T11:23:08.006Z,19.36
2018-11-12T11:25:37.035Z,19.16
2018-11-12T11:28:06.218Z,18.93
2018-11-12T11:30:35.195Z,18.98
2018-11-12T11:33:04.252Z,18.92
2018-11-12T11:35:34.497Z,18.94
2018-11-12T11:38:03.805Z,18.89
2018-11-12T11:40:32.788Z,18.78
2018-11-12T11:43:01.823Z,18.49
2018-11-12T11:45:30.870Z,18.32
2018-11-12T11:48:01.529Z,18.23
2018-11-12T11:50:30.697Z,18.23
2018-11-12T11:52:59.536Z,18.16
2018-11-12T11:55:28.565Z,18.21
2018-11-12T11:57:57.547Z,18.32
2018-11-12T12:00:28.786Z,18.14
2018-11-12T12:02:58.810Z,18.16
2018-11-12T12:05:29.615Z,18.06
2018-11-12T12:07:58.886Z,17.96
2018-11-12T12:10:27.884Z,17.71
2018-11-12T12:12:58.378Z,17.62
2018-11-12T12:15:27.253Z,17.57
2018-11-12T12:17:56.161Z,17.64
2018-11-12T12:20:26.278Z,17.33
2018-11-12T12:22:55.646Z,17.12
2018-11-12T12:25:24.527Z,17.04
2018-11-12T12:27:53.474Z,16.90
2018-11-12T12:30:24.421Z,16.93
2018-11-12T12:32:55.688Z,16.74
2018-11-12T12:35:24.694Z,16.46
2018-11-12T12:37:54.042Z,16.31
2018-11-12T12:40:23.866Z,16.22
2018-11-12T12:42:53.030Z,16.17
2018-11-12T12:45:23.636Z,16.11
2018-11-12T12:47:53.059Z,16.03
2018-11-12T12:50:21.995Z,15.98
2018-11-12T12:52:50.904Z,16.01
2018-11-12T12:55:20.150Z,15.98
2018-11-12T12:57:49.412Z,15.98
2018-11-12T13:00:25.168Z,16.05
2018-11-12T13:02:54.217Z,16.21
2018-11-12T13:05:23.302Z,16.43
2018-11-12T13:07:52.331Z,16.67
2018-11-12T13:10:22.550Z,16.68
2018-11-12T13:12:51.541Z,16.87
2018-11-12T13:15:21.204Z,16.90
2018-11-12T13:17:51.122Z,17.11
2018-11-12T13:20:21.381Z,17.12
2018-11-12T13:22:50.332Z,17.28
2018-11-12T13:25:21.736Z,17.24
2018-11-12T13:27:50.742Z,17.24
2018-11-12T13:30:21.840Z,17.43
2018-11-12T13:32:50.963Z,17.56
2018-11-12T13:35:23.163Z,17.26
2018-11-12T13:37:52.110Z,17.29
2018-11-12T13:40:22.325Z,17.31
2018-11-12T13:42:52.794Z,17.36
2018-11-12T13:45:22.197Z,17.31
2018-11-12T13:47:51.238Z,17.17
2018-11-12T13:50:22.474Z,16.93
2018-11-12T13:52:52.257Z,16.93
2018-11-12T13:55:23.664Z,16.85
2018-11-12T13:57:52.733Z,16.89
2018-11-12T14:00:24.328Z,16.72
2018-11-12T14:02:53.994Z,16.63
2018-11-12T14:05:23.838Z,16.48
2018-11-12T14:07:52.854Z,16.28
2018-11-12T14:10:23.254Z,16.07
2018-11-12T14:12:53.235Z,16.03
2018-11-12T14:15:23.009Z,16.00
2018-11-12T14:17:52.502Z,16.04
2018-11-12T14:20:23.567Z,15.93
2018-11-12T14:22:52.448Z,15.82
2018-11-12T14:25:22.313Z,15.93
2018-11-12T14:27:52.620Z,15.82
2018-11-12T14:30:24.031Z,15.73
2018-11-12T14:32:53.008Z,15.72
2018-11-12T14:35:22.064Z,15.64
2018-11-12T14:37:51.019Z,15.59
2018-11-12T14:40:20.227Z,15.55
2018-11-12T14:42:49.147Z,15.53
2018-11-12T14:45:19.869Z,15.43
2018-11-12T14:47:49.046Z,15.44
2018-11-12T14:50:18.047Z,15.40
2018-11-12T14:52:47.462Z,15.36
2018-11-12T14:55:22.588Z,15.31
2018-11-12T14:57:51.614Z,15.27
2018-11-12T15:00:23.936Z,15.27
2018-11-12T15:02:53.374Z,15.30
2018-11-12T15:05:23.675Z,15.24
2018-11-12T15:07:54.153Z,15.26
2018-11-12T15:10:23.076Z,15.23
2018-11-12T15:12:51.931Z,15.20
2018-11-12T15:15:20.889Z,15.23
2018-11-12T15:17:49.803Z,15.16
2018-11-12T15:20:19.882Z,15.12
2018-11-12T15:22:50.388Z,15.18
2018-11-12T15:25:23.810Z,15.15
2018-11-12T15:27:52.738Z,15.13
2018-11-12T15:30:23.925Z,15.09
2018-11-12T15:32:54.326Z,15.08
2018-11-12T15:35:23.265Z,15.10
2018-11-12T15:37:52.708Z,15.12
2018-11-12T15:40:21.689Z,15.04
2018-11-12T15:42:50.599Z,15.04
2018-11-12T15:45:21.083Z,14.99
2018-11-12T15:47:50.571Z,15.05
2018-11-12T15:50:23.139Z,15.00
2018-11-12T15:52:52.168Z,15.06
2018-11-12T15:55:21.133Z,15.10
2018-11-12T15:57:50.193Z,15.02
2018-11-12T16:00:19.305Z,15.02
2018-11-12T16:02:49.753Z,14.96
2018-11-12T16:05:18.695Z,15.07
2018-11-12T16:07:47.688Z,15.05
2018-11-12T16:10:19.336Z,15.05
2018-11-12T16:12:48.314Z,15.02
2018-11-12T16:15:18.502Z,15.05
2018-11-12T16:17:47.392Z,14.97
2018-11-12T16:20:21.377Z,14.99
2018-11-12T16:22:50.775Z,15.00
2018-11-12T16:25:21.404Z,15.00
2018-11-12T16:27:50.312Z,14.99
2018-11-12T16:30:19.260Z,14.88
2018-11-12T16:32:49.938Z,14.92
2018-11-12T16:35:20.968Z,14.86
2018-11-12T16:37:50.811Z,14.84
2018-11-12T16:40:19.823Z,14.93
2018-11-12T16:42:49.443Z,14.88
2018-11-12T16:45:19.822Z,14.86
2018-11-12T16:47:48.898Z,14.90
2018-11-12T16:50:18.350Z,14.86
2018-11-12T16:52:47.563Z,14.86
2018-11-12T16:55:18.463Z,14.78
2018-11-12T16:57:49.230Z,14.74
2018-11-12T17:00:19.457Z,14.83
2018-11-12T17:02:48.716Z,14.81
2018-11-12T17:05:19.156Z,14.80
2018-11-12T17:07:48.127Z,14.76
2018-11-12T17:10:18.428Z,14.77
2018-11-12T17:12:48.145Z,14.74
2018-11-12T17:15:17.136Z,14.71
2018-11-12T17:17:46.475Z,14.72
2018-11-12T17:20:18.124Z,14.74
2018-11-12T17:22:47.170Z,14.68
2018-11-12T17:25:16.880Z,14.65
2018-11-12T17:27:46.394Z,14.62
2018-11-12T17:30:17.449Z,14.61
2018-11-12T17:32:46.772Z,14.59
2018-11-12T17:35:18.203Z,14.58
2018-11-12T17:37:47.302Z,14.64
2018-11-12T17:40:17.882Z,14.73
2018-11-12T17:42:47.996Z,14.60
2018-11-12T17:45:18.300Z,14.62
2018-11-12T17:47:49.689Z,14.59
2018-11-12T17:50:18.736Z,14.51
2018-11-12T17:52:47.863Z,14.46
2018-11-12T17:55:16.965Z,14.43
2018-11-12T17:57:45.955Z,14.47
2018-11-12T18:00:23.550Z,14.49
2018-11-12T18:02:52.629Z,14.43
2018-11-12T18:05:21.698Z,14.35
2018-11-12T18:07:50.939Z,14.31
2018-11-12T18:10:20.204Z,14.31
2018-11-12T18:12:49.142Z,14.33
2018-11-12T18:15:19.576Z,14.40
2018-11-12T18:17:48.920Z,14.40
2018-11-12T18:20:21.625Z,14.40
2018-11-12T18:22:51.340Z,14.45
2018-11-12T18:25:20.418Z,14.43
2018-11-12T18:27:49.398Z,14.48
2018-11-12T18:30:20.465Z,14.48
2018-11-12T18:32:50.596Z,14.40
2018-11-12T18:35:19.678Z,14.38
2018-11-12T18:37:48.798Z,14.32
2018-11-12T18:40:19.240Z,14.34
2018-11-12T18:42:48.536Z,14.30
2018-11-12T18:45:19.927Z,14.33
2018-11-12T18:47:48.918Z,14.28
2018-11-12T18:50:20.251Z,14.34
2018-11-12T18:52:49.373Z,14.28
2018-11-12T18:55:18.268Z,14.35
2018-11-12T18:57:47.844Z,14.27
2018-11-12T19:00:18.090Z,14.30
2018-11-12T19:02:47.200Z,14.29
2018-11-12T19:05:19.283Z,14.29
2018-11-12T19:07:49.791Z,14.31
2018-11-12T19:10:21.259Z,14.36
2018-11-12T19:12:50.727Z,14.37
2018-11-12T19:15:27.480Z,14.37
2018-11-12T19:18:05.181Z,14.41
2018-11-12T19:20:34.300Z,14.45
2018-11-12T19:23:03.314Z,14.41
2018-11-12T19:25:32.327Z,14.33
2018-11-12T19:28:01.341Z,14.27
2018-11-12T19:30:30.820Z,14.22
2018-11-12T19:32:59.887Z,14.17
2018-11-12T19:35:31.163Z,14.22
2018-11-12T19:38:00.187Z,14.19
2018-11-12T19:40:30.303Z,14.18
2018-11-12T19:42:59.490Z,14.23
2018-11-12T19:45:28.502Z,14.24
2018-11-12T19:47:57.520Z,14.28
2018-11-12T19:50:29.347Z,14.30
2018-11-12T19:52:59.254Z,14.31
2018-11-12T19:55:28.266Z,14.29
2018-11-12T19:57:57.321Z,14.29
2018-11-12T20:00:27.514Z,14.25
2018-11-12T20:02:57.746Z,14.22
2018-11-12T20:05:26.771Z,14.29
2018-11-12T20:07:55.743Z,14.28
2018-11-12T20:10:25.071Z,14.27
2018-11-12T20:12:54.933Z,14.36
2018-11-12T20:15:24.806Z,14.30
2018-11-12T20:17:54.447Z,14.33
2018-11-12T20:20:26.910Z,14.36
2018-11-12T20:22:57.267Z,14.29
2018-11-12T20:25:26.288Z,14.21
2018-11-12T20:27:56.014Z,14.24
2018-11-12T20:30:31.806Z,14.22
2018-11-12T20:33:00.958Z,14.24
2018-11-12T20:35:29.873Z,14.27
2018-11-12T20:37:58.906Z,14.30
2018-11-12T20:40:27.923Z,14.22
2018-11-12T20:42:56.884Z,14.11
2018-11-12T20:45:26.212Z,14.00
2018-11-12T20:47:56.300Z,13.93
2018-11-12T20:50:25.273Z,13.92
2018-11-12T20:52:55.547Z,13.96
2018-11-12T20:55:24.565Z,14.02
2018-11-12T20:57:53.471Z,14.00
2018-11-12T21:00:24.032Z,13.98
2018-11-12T21:02:53.586Z,13.97
2018-11-12T21:05:23.947Z,13.75
2018-11-12T21:07:52.953Z,14.03
2018-11-12T21:10:22.121Z,13.98
2018-11-12T21:12:51.510Z,14.04
2018-11-12T21:15:21.470Z,14.05
2018-11-12T21:17:50.574Z,14.04
2018-11-12T21:20:22.055Z,14.02
2018-11-12T21:22:51.191Z,13.98
2018-11-12T21:25:21.680Z,13.98
2018-11-12T21:27:50.654Z,13.91
2018-11-12T21:30:22.713Z,13.92
2018-11-12T21:32:51.663Z,13.89
2018-11-12T21:35:20.750Z,13.89
2018-11-12T21:37:50.435Z,13.93
2018-11-12T21:40:20.846Z,13.95
2018-11-12T21:42:51.005Z,13.86
2018-11-12T21:45:21.455Z,13.83
2018-11-12T21:47:50.400Z,13.82
2018-11-12T21:50:20.509Z,13.90
2018-11-12T21:52:50.382Z,13.86
2018-11-12T21:55:20.460Z,13.84
2018-11-12T21:57:50.659Z,13.87
2018-11-12T22:00:25.162Z,13.82
2018-11-12T22:03:00.642Z,13.76
2018-11-12T22:05:33.805Z,13.78
2018-11-12T22:08:05.516Z,13.76
2018-11-12T22:10:38.311Z,13.73
2018-11-12T22:13:07.587Z,13.71
2018-11-12T22:15:37.672Z,13.78
2018-11-12T22:18:07.740Z,13.80
2018-11-12T22:20:38.104Z,13.81
2018-11-12T22:23:08.011Z,13.80
2018-11-12T22:25:38.776Z,13.79
2018-11-12T22:28:09.938Z,13.76
2018-11-12T22:30:39.941Z,13.68
2018-11-12T22:33:12.793Z,13.67
2018-11-12T22:35:44.919Z,13.68
2018-11-12T22:38:15.227Z,13.68
2018-11-12T22:40:45.266Z,13.69
2018-11-12T22:43:15.432Z,13.68
2018-11-12T22:45:45.503Z,13.66
2018-11-12T22:48:16.322Z,13.67
2018-11-12T22:50:45.638Z,13.68
2018-11-12T22:53:16.030Z,13.72
2018-11-12T22:55:46.977Z,13.62
2018-11-12T22:58:17.066Z,13.67
2018-11-12T23:00:46.484Z,13.63
2018-11-12T23:03:16.869Z,13.67
2018-11-12T23:05:46.447Z,13.65
2018-11-12T23:08:18.208Z,13.56
2018-11-12T23:10:48.395Z,13.51
2018-11-12T23:13:17.943Z,13.50
2018-11-12T23:15:48.933Z,12.94
2018-11-12T23:18:19.369Z,13.46
2018-11-12T23:20:49.514Z,13.44
2018-11-12T23:23:19.908Z,13.45
2018-11-12T23:25:50.161Z,13.33
2018-11-12T23:28:19.497Z,13.31
2018-11-12T23:30:49.799Z,13.34
2018-11-12T23:33:19.232Z,13.30
2018-11-12T23:35:48.530Z,13.28
2018-11-12T23:38:18.594Z,13.31
2018-11-12T23:40:49.713Z,13.24
2018-11-12T23:43:18.957Z,13.28
2018-11-12T23:45:49.242Z,13.25
2018-11-12T23:48:19.185Z,13.26
2018-11-12T23:50:50.488Z,13.22
2018-11-12T23:53:22.030Z,13.26
2018-11-12T23:55:51.370Z,13.23
2018-11-12T23:58:21.419Z,13.23
